sensor_id;sensor_type;location;lat;lon;timestamp;pressure;altitude;pressure_sealevel;temperature;humidity
10460;BME280;54412;51.206;6.888;2023-03-20T00:02:06;101235.44;;;11.76;72.15
10460;BME280;54412;51.206;6.888;2023-03-20T00:04:32;101240.25;;;11.86;71.29
10460;BME280;54412;51.206;6.888;2023-03-20T00:06:58;101237.03;;;11.80;70.86
10460;BME280;54412;51.206;6.888;2023-03-20T00:09:24;101240.06;;;11.91;70.08
10460;BME280;54412;51.206;6.888;2023-03-20T00:11:53;101243.59;;;11.90;70.94
10460;BME280;54412;51.206;6.888;2023-03-20T00:14:22;101247.69;;;11.78;70.72
10460;BME280;54412;51.206;6.888;2023-03-20T00:16:49;101246.34;;;11.68;71.19
10460;BME280;54412;51.206;6.888;2023-03-20T00:19:18;101253.09;;;11.75;70.88
10460;BME280;54412;51.206;6.888;2023-03-20T00:21:45;101255.88;;;11.72;70.10
10460;BME280;54412;51.206;6.888;2023-03-20T00:24:13;101260.88;;;11.58;71.07
10460;BME280;54412;51.206;6.888;2023-03-20T00:26:40;101253.50;;;11.66;71.15
10460;BME280;54412;51.206;6.888;2023-03-20T00:29:25;101256.66;;;11.54;71.68
10460;BME280;54412;51.206;6.888;2023-03-20T00:31:53;101254.75;;;11.78;70.27
10460;BME280;54412;51.206;6.888;2023-03-20T00:34:23;101258.78;;;11.66;70.42
10460;BME280;54412;51.206;6.888;2023-03-20T00:36:51;101256.00;;;11.49;70.79
10460;BME280;54412;51.206;6.888;2023-03-20T00:39:17;101254.59;;;11.60;70.98
10460;BME280;54412;51.206;6.888;2023-03-20T00:44:32;101261.16;;;11.72;69.82
10460;BME280;54412;51.206;6.888;2023-03-20T00:47:02;101260.56;;;11.45;71.17
10460;BME280;54412;51.206;6.888;2023-03-20T00:49:31;101264.25;;;11.62;70.49
10460;BME280;54412;51.206;6.888;2023-03-20T00:51:58;101260.34;;;11.50;70.37
10460;BME280;54412;51.206;6.888;2023-03-20T00:54:26;101259.16;;;11.77;69.21
10460;BME280;54412;51.206;6.888;2023-03-20T00:57:29;101260.56;;;11.45;70.63
10460;BME280;54412;51.206;6.888;2023-03-20T01:00:02;101255.34;;;11.44;71.27
10460;BME280;54412;51.206;6.888;2023-03-20T01:02:29;101251.44;;;11.52;70.94
10460;BME280;54412;51.206;6.888;2023-03-20T01:04:56;101242.09;;;11.64;69.76
10460;BME280;54412;51.206;6.888;2023-03-20T01:07:22;101249.94;;;11.67;69.78
10460;BME280;54412;51.206;6.888;2023-03-20T01:09:48;101252.41;;;11.50;69.79
10460;BME280;54412;51.206;6.888;2023-03-20T01:12:14;101239.75;;;11.38;70.20
10460;BME280;54412;51.206;6.888;2023-03-20T01:14:42;101231.66;;;11.22;71.26
10460;BME280;54412;51.206;6.888;2023-03-20T01:17:20;101225.69;;;11.37;70.91
10460;BME280;54412;51.206;6.888;2023-03-20T01:19:47;101240.81;;;11.34;71.50
10460;BME280;54412;51.206;6.888;2023-03-20T01:22:14;101236.91;;;11.42;70.30
10460;BME280;54412;51.206;6.888;2023-03-20T01:24:42;101236.06;;;11.42;71.08
10460;BME280;54412;51.206;6.888;2023-03-20T01:27:18;101241.34;;;11.42;70.98
10460;BME280;54412;51.206;6.888;2023-03-20T01:29:44;101238.88;;;11.37;71.70
10460;BME280;54412;51.206;6.888;2023-03-20T01:32:17;101232.75;;;11.37;71.26
10460;BME280;54412;51.206;6.888;2023-03-20T01:34:43;101237.44;;;11.50;71.15
10460;BME280;54412;51.206;6.888;2023-03-20T01:37:24;101225.91;;;11.33;71.65
10460;BME280;54412;51.206;6.888;2023-03-20T01:39:51;101227.03;;;11.27;71.93
10460;BME280;54412;51.206;6.888;2023-03-20T01:42:17;101230.63;;;11.45;71.41
10460;BME280;54412;51.206;6.888;2023-03-20T01:44:44;101222.78;;;11.43;71.19
10460;BME280;54412;51.206;6.888;2023-03-20T01:47:23;101224.16;;;11.32;71.33
10460;BME280;54412;51.206;6.888;2023-03-20T01:52:45;101216.13;;;11.35;71.36
10460;BME280;54412;51.206;6.888;2023-03-20T01:55:12;101217.75;;;11.37;70.69
10460;BME280;54412;51.206;6.888;2023-03-20T01:57:38;101226.16;;;11.27;71.81
10460;BME280;54412;51.206;6.888;2023-03-20T02:00:09;101226.75;;;11.33;72.27
10460;BME280;54412;51.206;6.888;2023-03-20T02:02:37;101223.59;;;11.25;71.32
10460;BME280;54412;51.206;6.888;2023-03-20T02:05:09;101226.28;;;11.04;72.38
10460;BME280;54412;51.206;6.888;2023-03-20T02:07:38;101239.56;;;11.02;73.03
10460;BME280;54412;51.206;6.888;2023-03-20T02:10:13;101241.41;;;11.00;73.29
10460;BME280;54412;51.206;6.888;2023-03-20T02:12:40;101237.72;;;11.04;73.71
10460;BME280;54412;51.206;6.888;2023-03-20T02:15:07;101226.53;;;10.98;74.29
10460;BME280;54412;51.206;6.888;2023-03-20T02:17:34;101231.59;;;10.82;74.86
10460;BME280;54412;51.206;6.888;2023-03-20T02:32:24;101210.97;;;10.92;74.78
10460;BME280;54412;51.206;6.888;2023-03-20T02:38:38;101222.22;;;10.75;74.86
10460;BME280;54412;51.206;6.888;2023-03-20T02:49:54;101216.69;;;10.60;75.32
10460;BME280;54412;51.206;6.888;2023-03-20T02:52:50;101234.56;;;10.53;75.56
10460;BME280;54412;51.206;6.888;2023-03-20T02:55:38;101249.50;;;10.54;75.11
10460;BME280;54412;51.206;6.888;2023-03-20T03:01:13;101246.34;;;10.44;76.05
10460;BME280;54412;51.206;6.888;2023-03-20T03:03:55;101250.63;;;10.47;76.17
10460;BME280;54412;51.206;6.888;2023-03-20T03:06:32;101248.78;;;10.49;75.63
10460;BME280;54412;51.206;6.888;2023-03-20T03:09:13;101244.75;;;10.62;76.01
10460;BME280;54412;51.206;6.888;2023-03-20T03:11:49;101247.38;;;10.62;74.99
10460;BME280;54412;51.206;6.888;2023-03-20T03:14:31;101248.69;;;10.74;73.92
10460;BME280;54412;51.206;6.888;2023-03-20T03:17:03;101256.97;;;10.65;75.19
10460;BME280;54412;51.206;6.888;2023-03-20T03:19:32;101252.06;;;10.77;75.28
10460;BME280;54412;51.206;6.888;2023-03-20T03:21:59;101251.97;;;10.79;75.00
10460;BME280;54412;51.206;6.888;2023-03-20T03:24:31;101243.84;;;10.63;75.73
10460;BME280;54412;51.206;6.888;2023-03-20T03:27:02;101230.00;;;10.78;73.39
10460;BME280;54412;51.206;6.888;2023-03-20T03:29:37;101211.75;;;10.74;74.04
10460;BME280;54412;51.206;6.888;2023-03-20T03:32:06;101208.78;;;10.60;75.03
10460;BME280;54412;51.206;6.888;2023-03-20T03:34:44;101196.03;;;10.49;74.26
10460;BME280;54412;51.206;6.888;2023-03-20T03:37:24;101200.28;;;10.53;74.42
10460;BME280;54412;51.206;6.888;2023-03-20T03:45:32;101209.56;;;10.63;75.23
10460;BME280;54412;51.206;6.888;2023-03-20T03:48:17;101223.34;;;10.48;75.83
10460;BME280;54412;51.206;6.888;2023-03-20T03:50:52;101227.63;;;10.50;75.81
10460;BME280;54412;51.206;6.888;2023-03-20T03:53:25;101230.03;;;10.57;75.43
10460;BME280;54412;51.206;6.888;2023-03-20T03:55:58;101223.22;;;10.51;75.18
10460;BME280;54412;51.206;6.888;2023-03-20T04:00:58;101235.81;;;10.66;74.09
10460;BME280;54412;51.206;6.888;2023-03-20T04:03:35;101237.63;;;10.64;73.92
10460;BME280;54412;51.206;6.888;2023-03-20T04:06:04;101234.63;;;10.73;73.72
10460;BME280;54412;51.206;6.888;2023-03-20T04:08:33;101229.78;;;10.63;73.37
10460;BME280;54412;51.206;6.888;2023-03-20T04:10:59;101235.94;;;10.63;73.53
10460;BME280;54412;51.206;6.888;2023-03-20T04:13:24;101241.44;;;10.57;73.79
10460;BME280;54412;51.206;6.888;2023-03-20T04:15:50;101243.56;;;10.69;72.81
10460;BME280;54412;51.206;6.888;2023-03-20T04:18:17;101245.16;;;10.95;72.27
10460;BME280;54412;51.206;6.888;2023-03-20T04:20:45;101240.56;;;10.78;71.51
10460;BME280;54412;51.206;6.888;2023-03-20T04:23:12;101233.31;;;10.83;71.36
10460;BME280;54412;51.206;6.888;2023-03-20T04:25:38;101238.88;;;10.77;71.91
10460;BME280;54412;51.206;6.888;2023-03-20T04:28:04;101227.00;;;10.87;70.41
10460;BME280;54412;51.206;6.888;2023-03-20T04:30:30;101229.72;;;10.64;70.89
10460;BME280;54412;51.206;6.888;2023-03-20T04:32:56;101230.31;;;10.49;71.63
10460;BME280;54412;51.206;6.888;2023-03-20T04:35:22;101209.66;;;10.60;71.78
10460;BME280;54412;51.206;6.888;2023-03-20T04:37:48;101217.28;;;10.46;71.66
10460;BME280;54412;51.206;6.888;2023-03-20T04:40:14;101216.16;;;10.51;70.98
10460;BME280;54412;51.206;6.888;2023-03-20T04:42:40;101219.03;;;10.45;71.46
10460;BME280;54412;51.206;6.888;2023-03-20T04:45:07;101223.03;;;10.56;70.38
10460;BME280;54412;51.206;6.888;2023-03-20T04:47:32;101219.03;;;10.24;71.31
10460;BME280;54412;51.206;6.888;2023-03-20T04:49:58;101218.59;;;10.13;71.54
10460;BME280;54412;51.206;6.888;2023-03-20T04:52:24;101223.88;;;10.13;72.06
10460;BME280;54412;51.206;6.888;2023-03-20T04:54:49;101228.03;;;10.18;71.62
10460;BME280;54412;51.206;6.888;2023-03-20T04:57:15;101224.22;;;10.27;71.26
10460;BME280;54412;51.206;6.888;2023-03-20T04:59:41;101209.94;;;10.09;72.06
10460;BME280;54412;51.206;6.888;2023-03-20T05:02:07;101219.34;;;10.38;70.85
10460;BME280;54412;51.206;6.888;2023-03-20T05:04:33;101216.31;;;10.27;71.29
10460;BME280;54412;51.206;6.888;2023-03-20T05:06:59;101213.41;;;10.33;71.30
10460;BME280;54412;51.206;6.888;2023-03-20T05:09:25;101201.22;;;10.30;70.87
10460;BME280;54412;51.206;6.888;2023-03-20T05:11:50;101203.72;;;10.33;71.17
10460;BME280;54412;51.206;6.888;2023-03-20T05:14:16;101203.72;;;10.33;70.66
10460;BME280;54412;51.206;6.888;2023-03-20T05:16:42;101199.09;;;10.17;70.44
10460;BME280;54412;51.206;6.888;2023-03-20T05:19:07;101201.50;;;10.23;70.91
10460;BME280;54412;51.206;6.888;2023-03-20T05:21:33;101198.25;;;10.16;71.09
10460;BME280;54412;51.206;6.888;2023-03-20T05:23:59;101204.81;;;10.28;70.57
10460;BME280;54412;51.206;6.888;2023-03-20T05:26:24;101202.13;;;10.51;69.74
10460;BME280;54412;51.206;6.888;2023-03-20T05:28:50;101217.94;;;10.29;70.17
10460;BME280;54412;51.206;6.888;2023-03-20T05:31:16;101217.34;;;10.23;70.93
10460;BME280;54412;51.206;6.888;2023-03-20T05:33:42;101225.03;;;10.27;70.70
10460;BME280;54412;51.206;6.888;2023-03-20T05:36:08;101229.78;;;10.19;70.53
10460;BME280;54412;51.206;6.888;2023-03-20T05:38:34;101221.69;;;10.01;71.62
10460;BME280;54412;51.206;6.888;2023-03-20T05:41:00;101229.28;;;10.08;71.81
10460;BME280;54412;51.206;6.888;2023-03-20T05:43:27;101226.13;;;10.23;71.42
10460;BME280;54412;51.206;6.888;2023-03-20T05:45:56;101224.38;;;10.22;70.95
10460;BME280;54412;51.206;6.888;2023-03-20T05:48:22;101225.03;;;10.27;71.01
10460;BME280;54412;51.206;6.888;2023-03-20T05:50:48;101228.78;;;10.22;71.09
10460;BME280;54412;51.206;6.888;2023-03-20T05:53:14;101225.91;;;10.28;71.44
10460;BME280;54412;51.206;6.888;2023-03-20T05:55:40;101223.88;;;10.34;72.63
10460;BME280;54412;51.206;6.888;2023-03-20T05:58:06;101218.56;;;10.36;71.64
10460;BME280;54412;51.206;6.888;2023-03-20T06:00:32;101221.06;;;10.61;71.99
10460;BME280;54412;51.206;6.888;2023-03-20T06:02:57;101225.25;;;10.44;72.28
10460;BME280;54412;51.206;6.888;2023-03-20T06:05:23;101228.03;;;10.63;72.88
10460;BME280;54412;51.206;6.888;2023-03-20T06:07:49;101233.41;;;10.60;71.93
10460;BME280;54412;51.206;6.888;2023-03-20T06:10:15;101229.84;;;10.61;71.01
10460;BME280;54412;51.206;6.888;2023-03-20T06:12:41;101232.28;;;10.66;71.11
10460;BME280;54412;51.206;6.888;2023-03-20T06:15:07;101227.88;;;10.44;71.20
10460;BME280;54412;51.206;6.888;2023-03-20T06:17:33;101221.00;;;10.62;70.45
10460;BME280;54412;51.206;6.888;2023-03-20T06:19:59;101223.47;;;10.67;70.39
10460;BME280;54412;51.206;6.888;2023-03-20T06:22:25;101233.09;;;10.46;70.98
10460;BME280;54412;51.206;6.888;2023-03-20T06:24:51;101231.19;;;10.49;70.73
10460;BME280;54412;51.206;6.888;2023-03-20T06:27:17;101223.59;;;10.42;71.52
10460;BME280;54412;51.206;6.888;2023-03-20T06:29:43;101223.41;;;10.68;69.93
10460;BME280;54412;51.206;6.888;2023-03-20T06:32:08;101221.13;;;10.81;69.83
10460;BME280;54412;51.206;6.888;2023-03-20T06:34:37;101222.53;;;10.68;70.25
10460;BME280;54412;51.206;6.888;2023-03-20T06:37:02;101222.25;;;10.32;71.72
10460;BME280;54412;51.206;6.888;2023-03-20T06:39:28;101232.88;;;10.52;70.42
10460;BME280;54412;51.206;6.888;2023-03-20T06:41:54;101231.88;;;10.54;70.55
10460;BME280;54412;51.206;6.888;2023-03-20T06:44:20;101230.41;;;10.47;70.33
10460;BME280;54412;51.206;6.888;2023-03-20T06:46:46;101235.59;;;10.49;70.64
10460;BME280;54412;51.206;6.888;2023-03-20T06:49:11;101237.22;;;10.53;70.61
10460;BME280;54412;51.206;6.888;2023-03-20T06:51:37;101239.59;;;10.37;71.05
10460;BME280;54412;51.206;6.888;2023-03-20T06:54:04;101247.31;;;10.42;71.51
10460;BME280;54412;51.206;6.888;2023-03-20T06:56:29;101263.72;;;10.50;71.00
10460;BME280;54412;51.206;6.888;2023-03-20T06:58:56;101271.50;;;10.53;70.01
10460;BME280;54412;51.206;6.888;2023-03-20T07:01:22;101284.94;;;10.24;70.93
10460;BME280;54412;51.206;6.888;2023-03-20T07:03:48;101274.72;;;10.38;70.58
10460;BME280;54412;51.206;6.888;2023-03-20T07:06:15;101274.84;;;10.35;71.00
10460;BME280;54412;51.206;6.888;2023-03-20T07:08:43;101266.81;;;10.38;70.96
10460;BME280;54412;51.206;6.888;2023-03-20T07:11:09;101268.19;;;10.48;70.90
10460;BME280;54412;51.206;6.888;2023-03-20T07:13:35;101275.53;;;10.62;70.32
10460;BME280;54412;51.206;6.888;2023-03-20T07:16:02;101279.69;;;10.45;70.30
10460;BME280;54412;51.206;6.888;2023-03-20T07:18:28;101290.50;;;10.39;70.44
10460;BME280;54412;51.206;6.888;2023-03-20T07:21:00;101288.94;;;10.57;70.75
10460;BME280;54412;51.206;6.888;2023-03-20T07:23:31;101288.13;;;10.55;70.07
10460;BME280;54412;51.206;6.888;2023-03-20T07:25:58;101288.13;;;10.55;70.27
10460;BME280;54412;51.206;6.888;2023-03-20T07:28:24;101295.44;;;10.48;70.53
10460;BME280;54412;51.206;6.888;2023-03-20T07:30:51;101289.81;;;10.34;71.20
10460;BME280;54412;51.206;6.888;2023-03-20T07:33:16;101294.13;;;10.37;71.21
10460;BME280;54412;51.206;6.888;2023-03-20T07:35:42;101283.09;;;10.71;69.66
10460;BME280;54412;51.206;6.888;2023-03-20T07:38:08;101283.44;;;10.62;70.18
10460;BME280;54412;51.206;6.888;2023-03-20T07:40:34;101293.81;;;10.44;71.61
10460;BME280;54412;51.206;6.888;2023-03-20T07:42:59;101288.25;;;10.52;71.05
10460;BME280;54412;51.206;6.888;2023-03-20T07:45:25;101295.09;;;10.78;69.97
10460;BME280;54412;51.206;6.888;2023-03-20T07:47:51;101299.41;;;10.59;69.38
10460;BME280;54412;51.206;6.888;2023-03-20T07:50:17;101308.84;;;10.42;68.14
10460;BME280;54412;51.206;6.888;2023-03-20T07:52:47;101300.16;;;10.17;69.41
10460;BME280;54412;51.206;6.888;2023-03-20T07:55:14;101301.88;;;10.41;68.56
10460;BME280;54412;51.206;6.888;2023-03-20T07:57:41;101308.19;;;10.14;68.73
10460;BME280;54412;51.206;6.888;2023-03-20T08:00:08;101302.91;;;10.14;68.02
10460;BME280;54412;51.206;6.888;2023-03-20T08:02:34;101310.81;;;10.37;68.04
10460;BME280;54412;51.206;6.888;2023-03-20T08:05:00;101312.06;;;10.27;67.38
10460;BME280;54412;51.206;6.888;2023-03-20T08:07:26;101319.63;;;10.36;66.56
10460;BME280;54412;51.206;6.888;2023-03-20T08:09:54;101316.31;;;10.31;66.43
10460;BME280;54412;51.206;6.888;2023-03-20T08:12:20;101314.00;;;10.67;66.00
10460;BME280;54412;51.206;6.888;2023-03-20T08:14:46;101307.97;;;10.42;65.96
10460;BME280;54412;51.206;6.888;2023-03-20T08:17:12;101313.31;;;10.17;65.96
10460;BME280;54412;51.206;6.888;2023-03-20T08:19:38;101309.38;;;10.29;66.72
10460;BME280;54412;51.206;6.888;2023-03-20T08:22:04;101323.78;;;10.42;65.58
10460;BME280;54412;51.206;6.888;2023-03-20T08:24:30;101318.94;;;10.31;65.62
10460;BME280;54412;51.206;6.888;2023-03-20T08:26:56;101318.78;;;10.36;64.77
10460;BME280;54412;51.206;6.888;2023-03-20T08:29:21;101320.41;;;10.38;64.57
10460;BME280;54412;51.206;6.888;2023-03-20T08:31:47;101327.66;;;10.33;64.53
10460;BME280;54412;51.206;6.888;2023-03-20T08:34:13;101328.56;;;10.56;63.90
10460;BME280;54412;51.206;6.888;2023-03-20T08:36:39;101325.31;;;10.71;64.09
10460;BME280;54412;51.206;6.888;2023-03-20T08:39:05;101324.09;;;10.58;63.72
10460;BME280;54412;51.206;6.888;2023-03-20T08:41:33;101327.56;;;10.80;61.97
10460;BME280;54412;51.206;6.888;2023-03-20T08:43:58;101326.81;;;11.19;61.81
10460;BME280;54412;51.206;6.888;2023-03-20T08:46:24;101334.19;;;11.33;61.30
10460;BME280;54412;51.206;6.888;2023-03-20T08:48:50;101338.56;;;11.12;60.80
10460;BME280;54412;51.206;6.888;2023-03-20T08:51:16;101326.03;;;11.17;60.93
10460;BME280;54412;51.206;6.888;2023-03-20T08:53:41;101331.84;;;11.25;60.60
10460;BME280;54412;51.206;6.888;2023-03-20T08:56:08;101327.34;;;10.86;60.63
10460;BME280;54412;51.206;6.888;2023-03-20T08:58:34;101333.22;;;11.14;59.48
10460;BME280;54412;51.206;6.888;2023-03-20T09:01:07;101329.38;;;11.01;60.90
10460;BME280;54412;51.206;6.888;2023-03-20T09:03:34;101330.50;;;10.94;60.82
10460;BME280;54412;51.206;6.888;2023-03-20T09:06:04;101331.69;;;11.08;60.37
10460;BME280;54412;51.206;6.888;2023-03-20T09:08:30;101334.75;;;10.98;60.59
10460;BME280;54412;51.206;6.888;2023-03-20T09:10:56;101332.91;;;11.21;59.95
10460;BME280;54412;51.206;6.888;2023-03-20T09:13:22;101338.00;;;11.26;59.23
10460;BME280;54412;51.206;6.888;2023-03-20T09:15:50;101343.53;;;11.20;59.90
10460;BME280;54412;51.206;6.888;2023-03-20T09:18:19;101353.50;;;11.33;58.97
10460;BME280;54412;51.206;6.888;2023-03-20T09:20:47;101341.94;;;10.94;59.16
10460;BME280;54412;51.206;6.888;2023-03-20T09:23:12;101335.75;;;10.95;59.83
10460;BME280;54412;51.206;6.888;2023-03-20T09:25:38;101338.06;;;10.81;60.25
10460;BME280;54412;51.206;6.888;2023-03-20T09:28:04;101338.84;;;10.62;61.16
10460;BME280;54412;51.206;6.888;2023-03-20T09:30:30;101345.00;;;10.62;61.40
10460;BME280;54412;51.206;6.888;2023-03-20T09:32:55;101327.41;;;10.63;60.89
10460;BME280;54412;51.206;6.888;2023-03-20T09:35:21;101339.97;;;10.99;61.22
10460;BME280;54412;51.206;6.888;2023-03-20T09:37:47;101326.41;;;10.65;60.54
10460;BME280;54412;51.206;6.888;2023-03-20T09:40:56;101343.03;;;10.67;60.74
10460;BME280;54412;51.206;6.888;2023-03-20T09:43:53;101330.03;;;10.84;59.55
10460;BME280;54412;51.206;6.888;2023-03-20T09:47:09;101339.28;;;10.51;60.81
10460;BME280;54412;51.206;6.888;2023-03-20T09:50:11;101328.56;;;10.56;60.16
10460;BME280;54412;51.206;6.888;2023-03-20T09:55:35;101326.00;;;10.76;60.66
10460;BME280;54412;51.206;6.888;2023-03-20T09:58:14;101331.19;;;11.20;58.88
10460;BME280;54412;51.206;6.888;2023-03-20T10:00:46;101329.75;;;10.92;58.49
10460;BME280;54412;51.206;6.888;2023-03-20T10:03:19;101328.91;;;11.33;58.17
10460;BME280;54412;51.206;6.888;2023-03-20T10:05:59;101334.66;;;11.21;56.20
10460;BME280;54412;51.206;6.888;2023-03-20T10:08:32;101338.44;;;10.94;55.31
10460;BME280;54412;51.206;6.888;2023-03-20T10:17:10;101337.50;;;11.16;55.39
10460;BME280;54412;51.206;6.888;2023-03-20T10:19:50;101334.56;;;11.24;56.11
10460;BME280;54412;51.206;6.888;2023-03-20T10:22:23;101345.50;;;10.93;54.65
10460;BME280;54412;51.206;6.888;2023-03-20T10:25:30;101344.94;;;11.07;55.14
10460;BME280;54412;51.206;6.888;2023-03-20T10:28:03;101336.41;;;10.57;55.39
10460;BME280;54412;51.206;6.888;2023-03-20T10:36:31;101326.59;;;11.04;55.39
10460;BME280;54412;51.206;6.888;2023-03-20T10:41:57;101331.44;;;10.71;54.88
10460;BME280;54412;51.206;6.888;2023-03-20T10:44:38;101326.09;;;11.16;54.59
10460;BME280;54412;51.206;6.888;2023-03-20T10:47:11;101321.97;;;11.09;54.24
10460;BME280;54412;51.206;6.888;2023-03-20T10:50:17;101321.22;;;11.27;54.99
10460;BME280;54412;51.206;6.888;2023-03-20T10:52:46;101323.69;;;11.31;54.69
10460;BME280;54412;51.206;6.888;2023-03-20T10:55:21;101318.78;;;11.22;56.25
10460;BME280;54412;51.206;6.888;2023-03-20T10:57:56;101327.13;;;11.12;54.47
10460;BME280;54412;51.206;6.888;2023-03-20T11:00:25;101313.78;;;11.36;54.55
10460;BME280;54412;51.206;6.888;2023-03-20T11:02:51;101318.34;;;11.53;54.64
10460;BME280;54412;51.206;6.888;2023-03-20T11:05:35;101319.56;;;11.24;55.67
10460;BME280;54412;51.206;6.888;2023-03-20T11:08:09;101326.41;;;10.65;55.50
10460;BME280;54412;51.206;6.888;2023-03-20T11:10:38;101317.22;;;10.75;56.48
10460;BME280;54412;51.206;6.888;2023-03-20T11:13:37;101312.81;;;11.17;56.70
10460;BME280;54412;51.206;6.888;2023-03-20T11:16:21;101305.47;;;11.04;57.33
10460;BME280;54412;51.206;6.888;2023-03-20T11:18:48;101304.16;;;11.14;58.05
10460;BME280;54412;51.206;6.888;2023-03-20T11:21:30;101310.84;;;11.02;58.46
10460;BME280;54412;51.206;6.888;2023-03-20T11:23:56;101311.44;;;11.09;59.29
10460;BME280;54412;51.206;6.888;2023-03-20T11:26:38;101301.19;;;10.80;60.09
10460;BME280;54412;51.206;6.888;2023-03-20T11:29:15;101296.34;;;10.91;60.46
10460;BME280;54412;51.206;6.888;2023-03-20T11:31:44;101297.28;;;10.90;60.39
10460;BME280;54412;51.206;6.888;2023-03-20T11:36:52;101282.03;;;10.96;59.45
10460;BME280;54412;51.206;6.888;2023-03-20T11:39:25;101287.53;;;11.12;59.42
10460;BME280;54412;51.206;6.888;2023-03-20T11:41:58;101288.50;;;10.68;58.18
10460;BME280;54412;51.206;6.888;2023-03-20T11:44:35;101285.91;;;10.66;58.78
10460;BME280;54412;51.206;6.888;2023-03-20T11:47:17;101280.34;;;10.74;59.23
10460;BME280;54412;51.206;6.888;2023-03-20T11:49:54;101287.53;;;10.47;58.52
10460;BME280;54412;51.206;6.888;2023-03-20T11:52:24;101284.09;;;10.68;58.82
10460;BME280;54412;51.206;6.888;2023-03-20T11:54:56;101291.91;;;10.26;58.39
10460;BME280;54412;51.206;6.888;2023-03-20T11:57:39;101285.84;;;10.46;59.23
10460;BME280;54412;51.206;6.888;2023-03-20T12:00:22;101289.41;;;10.45;59.19
10460;BME280;54412;51.206;6.888;2023-03-20T12:02:49;101289.97;;;10.53;59.96
10460;BME280;54412;51.206;6.888;2023-03-20T12:05:35;101289.22;;;10.71;59.11
10460;BME280;54412;51.206;6.888;2023-03-20T12:08:15;101293.16;;;10.61;58.93
10460;BME280;54412;51.206;6.888;2023-03-20T12:10:54;101287.63;;;10.67;58.92
10460;BME280;54412;51.206;6.888;2023-03-20T12:13:29;101286.56;;;10.28;59.74
10460;BME280;54412;51.206;6.888;2023-03-20T12:16:05;101292.41;;;10.13;60.96
10460;BME280;54412;51.206;6.888;2023-03-20T12:18:42;101284.66;;;10.31;60.37
10460;BME280;54412;51.206;6.888;2023-03-20T12:21:45;101284.00;;;10.48;61.08
10460;BME280;54412;51.206;6.888;2023-03-20T12:24:42;101290.66;;;10.35;62.07
10460;BME280;54412;51.206;6.888;2023-03-20T12:27:28;101289.13;;;10.29;61.98
10460;BME280;54412;51.206;6.888;2023-03-20T12:32:54;101279.78;;;10.66;62.23
10460;BME280;54412;51.206;6.888;2023-03-20T12:35:30;101281.16;;;10.54;62.56
10460;BME280;54412;51.206;6.888;2023-03-20T12:37:57;101279.38;;;10.31;63.61
10460;BME280;54412;51.206;6.888;2023-03-20T12:40:41;101271.59;;;10.28;63.89
10460;BME280;54412;51.206;6.888;2023-03-20T12:43:23;101268.66;;;10.14;62.35
10460;BME280;54412;51.206;6.888;2023-03-20T12:49:58;101263.88;;;10.45;62.67
10460;BME280;54412;51.206;6.888;2023-03-20T13:01:31;101243.78;;;10.85;62.13
10460;BME280;54412;51.206;6.888;2023-03-20T13:07:00;101244.53;;;11.10;61.93
10460;BME280;54412;51.206;6.888;2023-03-20T13:09:50;101234.22;;;11.04;60.64
10460;BME280;54412;51.206;6.888;2023-03-20T13:15:37;101235.50;;;10.94;60.50
10460;BME280;54412;51.206;6.888;2023-03-20T13:18:27;101242.97;;;10.84;59.86
10460;BME280;54412;51.206;6.888;2023-03-20T13:24:35;101229.41;;;10.72;60.57
10460;BME280;54412;51.206;6.888;2023-03-20T13:27:41;101232.47;;;10.83;60.93
10460;BME280;54412;51.206;6.888;2023-03-20T13:30:27;101228.47;;;10.73;61.08
10460;BME280;54412;51.206;6.888;2023-03-20T13:33:33;101230.25;;;10.50;62.12
10460;BME280;54412;51.206;6.888;2023-03-20T13:41:48;101205.75;;;10.90;61.26
10460;BME280;54412;51.206;6.888;2023-03-20T13:44:17;101211.97;;;11.09;60.83
10460;BME280;54412;51.206;6.888;2023-03-20T13:46:53;101207.03;;;11.22;60.21
10460;BME280;54412;51.206;6.888;2023-03-20T13:49:25;101203.25;;;11.07;60.72
10460;BME280;54412;51.206;6.888;2023-03-20T13:52:01;101207.03;;;11.22;60.37
10460;BME280;54412;51.206;6.888;2023-03-20T14:00:48;101199.41;;;10.94;61.19
10460;BME280;54412;51.206;6.888;2023-03-20T14:03:28;101206.22;;;11.00;61.39
10460;BME280;54412;51.206;6.888;2023-03-20T14:05:56;101199.34;;;10.96;60.71
10460;BME280;54412;51.206;6.888;2023-03-20T14:08:32;101198.69;;;10.91;61.20
10460;BME280;54412;51.206;6.888;2023-03-20T14:13:54;101194.13;;;10.94;61.17
10460;BME280;54412;51.206;6.888;2023-03-20T14:16:21;101204.13;;;11.08;61.50
10460;BME280;54412;51.206;6.888;2023-03-20T14:18:49;101202.78;;;10.98;61.50
10460;BME280;54412;51.206;6.888;2023-03-20T14:21:28;101201.13;;;10.75;61.60
10460;BME280;54412;51.206;6.888;2023-03-20T14:24:03;101192.53;;;10.70;62.07
10460;BME280;54412;51.206;6.888;2023-03-20T14:26:38;101196.38;;;11.03;62.13
10460;BME280;54412;51.206;6.888;2023-03-20T14:31:40;101181.94;;;11.12;60.71
10460;BME280;54412;51.206;6.888;2023-03-20T14:34:18;101172.84;;;11.19;60.90
10460;BME280;54412;51.206;6.888;2023-03-20T14:36:49;101179.91;;;11.18;60.84
10460;BME280;54412;51.206;6.888;2023-03-20T14:42:54;101169.00;;;11.26;61.18
10460;BME280;54412;51.206;6.888;2023-03-20T14:48:26;101165.16;;;11.33;61.31
10460;BME280;54412;51.206;6.888;2023-03-20T14:54:26;101168.03;;;11.47;61.28
10460;BME280;54412;51.206;6.888;2023-03-20T14:56:54;101157.63;;;11.44;60.79
10460;BME280;54412;51.206;6.888;2023-03-20T14:59:22;101160.16;;;11.27;61.35
10460;BME280;54412;51.206;6.888;2023-03-20T15:02:02;101157.31;;;11.50;61.20
10460;BME280;54412;51.206;6.888;2023-03-20T15:04:37;101168.59;;;11.35;60.70
10460;BME280;54412;51.206;6.888;2023-03-20T15:09:50;101155.63;;;11.49;61.19